createdAt,value
2022-12-08T02:54:51.725Z,-1.30
2022-12-08T02:58:11.036Z,-1.33
2022-12-08T03:01:15.976Z,-1.30
2022-12-08T03:04:41.362Z,-1.31
2022-12-08T03:08:00.640Z,-1.23
2022-12-08T03:11:21.740Z,-1.14
2022-12-08T03:14:24.955Z,-1.04
2022-12-08T03:17:29.699Z,-1.18
2022-12-08T03:20:34.630Z,-1.03
2022-12-08T03:23:38.252Z,-0.94
2022-12-08T03:26:50.560Z,-0.85
2022-12-08T03:29:55.203Z,-0.73
2022-12-08T03:33:31.578Z,-0.64
2022-12-08T03:36:33.806Z,-0.76
2022-12-08T03:39:35.688Z,-0.70
2022-12-08T03:42:37.632Z,-0.61
2022-12-08T03:45:39.537Z,-0.82
2022-12-08T03:48:41.455Z,-0.91
2022-12-08T03:51:43.624Z,-0.77
2022-12-08T03:54:45.584Z,-0.79
2022-12-08T03:57:47.518Z,-0.98
2022-12-08T04:00:49.859Z,-0.83
2022-12-08T04:03:52.203Z,-0.63
2022-12-08T04:06:54.076Z,-0.60
2022-12-08T04:09:55.908Z,-0.86
2022-12-08T04:12:57.967Z,-0.88
2022-12-08T04:15:59.995Z,-0.87
2022-12-08T04:19:01.898Z,-1.05
2022-12-08T04:22:03.909Z,-1.02
2022-12-08T04:25:06.348Z,-0.94
2022-12-08T04:28:08.419Z,-0.94
2022-12-08T04:31:11.010Z,-0.95
2022-12-08T04:34:12.927Z,-0.93
2022-12-08T04:37:14.781Z,-0.83
2022-12-08T04:40:16.796Z,-0.91
2022-12-08T04:43:19.007Z,-0.95
2022-12-08T04:46:20.926Z,-0.92
2022-12-08T04:49:22.775Z,-0.97
2022-12-08T04:52:24.644Z,-1.07
2022-12-08T06:01:26.215Z,-1.95
2022-12-08T06:04:28.311Z,-1.92
2022-12-08T06:07:30.204Z,-2.02
2022-12-08T06:10:32.111Z,-1.92
2022-12-08T06:13:34.289Z,-1.80
2022-12-08T06:16:36.444Z,-1.78
2022-12-08T06:19:38.566Z,-1.93
2022-12-08T06:22:40.356Z,-1.89
2022-12-08T06:25:42.192Z,-1.91
2022-12-08T06:28:44.654Z,-1.88
2022-12-08T06:31:46.620Z,-1.82
2022-12-08T06:34:48.712Z,-1.82
2022-12-08T06:37:51.771Z,-1.75
2022-12-08T06:40:58.029Z,-1.68
2022-12-08T06:43:59.939Z,-1.72
2022-12-08T06:47:01.799Z,-1.68
2022-12-08T06:50:04.893Z,-1.67
2022-12-08T06:53:07.170Z,-1.70
2022-12-08T06:56:10.146Z,-1.65
2022-12-08T06:59:12.142Z,-1.62
2022-12-08T07:02:14.177Z,-1.51
2022-12-08T07:05:16.157Z,-1.39
2022-12-08T07:08:18.353Z,-1.32
2022-12-08T07:11:22.377Z,-1.22
2022-12-08T07:14:25.073Z,-1.31
2022-12-08T07:17:27.082Z,-1.48
2022-12-08T07:20:29.268Z,-1.48
2022-12-08T07:23:31.268Z,-1.26
2022-12-08T07:26:33.159Z,-0.97
2022-12-08T07:29:35.266Z,-0.98
2022-12-08T07:32:38.426Z,-1.19
2022-12-08T07:35:43.827Z,-1.36
2022-12-08T07:38:48.970Z,-1.39
2022-12-08T07:41:50.864Z,-1.30
2022-12-08T07:44:52.962Z,-1.23
2022-12-08T07:47:54.856Z,-1.05
2022-12-08T07:51:02.384Z,-0.97
2022-12-08T07:54:04.517Z,-0.99
2022-12-08T07:57:06.632Z,-0.84
2022-12-08T08:00:10.649Z,-1.01
2022-12-08T09:14:35.344Z,-0.59
2022-12-08T09:17:38.246Z,-0.61
2022-12-08T09:20:40.235Z,-0.53
2022-12-08T09:23:43.203Z,-0.57
2022-12-08T09:26:45.177Z,-0.53
2022-12-08T09:29:50.920Z,-0.59
2022-12-08T09:32:53.149Z,-0.49
2022-12-08T09:35:55.131Z,-0.57
2022-12-08T09:38:57.339Z,-0.50
2022-12-08T09:42:05.173Z,-0.39
2022-12-08T09:45:12.888Z,-0.53
2022-12-08T09:48:23.015Z,-0.46
2022-12-08T09:51:27.809Z,-0.36
2022-12-08T09:54:34.629Z,-0.36
2022-12-08T09:57:37.183Z,-0.32
2022-12-08T10:00:40.061Z,-0.31
2022-12-08T10:03:42.881Z,-0.31
2022-12-08T10:07:12.957Z,-0.28
2022-12-08T10:10:27.533Z,-0.32
2022-12-08T10:13:44.321Z,-0.19
2022-12-08T10:16:49.701Z,-0.16
2022-12-08T10:19:59.976Z,-0.13
2022-12-08T10:23:15.818Z,-0.09
2022-12-08T10:26:20.387Z,-0.05
2022-12-08T10:29:22.435Z,-0.08
2022-12-08T10:32:24.742Z,0.11
2022-12-08T10:35:52.952Z,0.17
2022-12-08T10:38:54.860Z,0.21
2022-12-08T10:42:07.578Z,0.22
2022-12-08T10:45:09.441Z,0.19
2022-12-08T10:48:31.318Z,0.22
2022-12-08T10:51:33.338Z,0.26
2022-12-08T10:54:38.403Z,0.25
2022-12-08T10:57:40.230Z,0.40
2022-12-08T11:00:42.196Z,0.51
2022-12-08T11:03:54.180Z,0.43
2022-12-08T11:06:56.184Z,0.42
2022-12-08T11:09:59.127Z,0.43
2022-12-08T11:54:09.071Z,1.15
2022-12-08T11:57:16.625Z,1.21
2022-12-08T12:00:19.184Z,1.15
2022-12-08T12:03:29.999Z,1.07
2022-12-08T12:06:54.783Z,1.07
2022-12-08T12:09:56.820Z,1.03
2022-12-08T12:13:16.819Z,0.99
2022-12-08T12:16:40.872Z,0.98
2022-12-08T12:19:43.937Z,0.93
2022-12-08T12:22:50.876Z,0.92
2022-12-08T12:26:00.038Z,0.93
2022-12-08T12:29:13.328Z,0.98
2022-12-08T12:32:15.367Z,0.94
2022-12-08T12:35:32.244Z,0.98
2022-12-08T12:38:59.110Z,1.03
2022-12-08T12:42:05.003Z,1.12
2022-12-08T12:45:16.205Z,1.21
2022-12-08T12:48:24.709Z,1.29
2022-12-08T12:51:45.613Z,1.28
2022-12-08T12:54:50.345Z,1.37
2022-12-08T12:57:57.733Z,1.31
2022-12-08T13:01:11.983Z,1.34
2022-12-08T13:04:14.511Z,1.44
2022-12-08T13:07:26.740Z,1.44
2022-12-08T13:10:33.240Z,1.41
2022-12-08T13:13:36.105Z,1.36
2022-12-08T13:16:39.601Z,1.34
2022-12-08T13:19:45.372Z,1.27
2022-12-08T13:23:12.560Z,1.24
2022-12-08T13:26:24.671Z,1.22
2022-12-08T13:29:26.843Z,1.22
2022-12-08T13:32:29.336Z,1.18
2022-12-08T13:35:42.107Z,1.17
2022-12-08T13:38:48.177Z,1.20
2022-12-08T13:42:05.771Z,1.20
2022-12-08T13:59:35.511Z,0.98
2022-12-08T14:02:47.105Z,1.01
2022-12-08T14:06:11.814Z,0.93
2022-12-08T14:09:16.334Z,0.89
2022-12-08T14:12:24.786Z,0.82
2022-12-08T14:15:30.214Z,0.77
2022-12-08T14:18:36.179Z,0.79
2022-12-08T14:21:38.177Z,0.87
2022-12-08T14:24:44.284Z,0.82
2022-12-08T14:27:47.874Z,0.87
2022-12-08T14:30:50.718Z,0.85
2022-12-08T14:33:56.515Z,0.90
2022-12-08T14:36:59.076Z,0.92
2022-12-08T14:40:10.479Z,0.96
2022-12-08T14:43:15.203Z,1.07
2022-12-08T14:46:22.430Z,1.09
2022-12-08T14:49:36.324Z,1.10
2022-12-08T14:52:43.908Z,1.12
2022-12-08T14:55:47.972Z,1.08
2022-12-08T14:59:03.163Z,1.11
2022-12-08T15:02:21.710Z,1.19
2022-12-08T15:05:33.039Z,1.19
2022-12-08T15:08:50.148Z,1.13
2022-12-08T15:12:26.144Z,1.19
2022-12-08T15:15:30.681Z,1.20
2022-12-08T15:18:38.779Z,1.20
2022-12-08T15:21:40.660Z,1.21
2022-12-08T15:24:42.517Z,1.16
2022-12-08T15:27:50.590Z,1.15
2022-12-08T15:30:53.133Z,1.17
2022-12-08T15:33:55.052Z,1.31
2022-12-08T15:36:56.980Z,1.40
2022-12-08T15:39:59.011Z,1.33
2022-12-08T15:43:00.814Z,1.32
2022-12-08T15:46:04.934Z,1.27
2022-12-08T15:49:06.828Z,1.25
2022-12-08T15:52:23.716Z,1.20
